Silver Shadow — C6FN6 — position and weather

sailwx.info

Track history (hours):
 
Tides and Currents Weather Stations Pressure Air Temp Water Temp Dewpoint Dewpoint Depression Visibility Wind Speed Wind Dir Waves Ship Positions

Silver Shadow

Operator: V Ships Leisure SAM

Last reported at 2014-Sep-25 05:07 UTC. Time now 2014-Oct-20 13:03 UTC.
Position N 37°24' W 123°16'.
Warning: this ship's position is 25 days out of date.

Length 186 m; draft 6.1 m.

Type: Passenger vessel. MMSI: 308628000.

Date/timePositionNaut miles runAvg speedWind from/ knotsBaromVisibWave heightAir tempDewpointWater temp
2014-Sep-25 05:07N 37°24' W 123°16'915.4
2014-Sep-25 04:33N 37°30' W 123°08'1515.3
2014-Sep-25 03:33N 37°40' W 122°53'1313.3
2014-Sep-25 02:34N 37°46' W 122°38'1111.2
2014-Sep-25 01:32N 37°48' W 122°24'0 0.0
2014-Sep-25 00:32N 37°48' W 122°24'0 0.0
2014-Sep-24 23:29N 37°48' W 122°24'0 0.0
2014-Sep-24 22:32N 37°48' W 122°24'0 0.0
2014-Sep-24 21:32N 37°48' W 122°24'0 0.0
2014-Sep-24 20:32N 37°48' W 122°24'0 0.0
2014-Sep-24 19:29N 37°48' W 122°24'0 0.0
2014-Sep-24 18:32N 37°48' W 122°24'0 0.0
2014-Sep-24 17:29N 37°48' W 122°24'0 0.0
2014-Sep-24 16:32N 37°48' W 122°24'0 0.0
2014-Sep-24 15:32N 37°48' W 122°24'0 0.0
2014-Sep-24 14:34N 37°48' W 122°24'6 6.4
2014-Sep-24 13:33N 37°48' W 122°32'1212.4
2014-Sep-24 12:33N 37°47' W 122°48'1313.4
2014-Sep-24 11:33N 37°54' W 123°03'1313.3
2014-Sep-24 10:33N 38°02' W 123°16'1313.2
2014-Sep-24 09:33N 38°10' W 123°29'1414.4
2014-Sep-24 08:33N 38°18' W 123°44'1414.4
2014-Sep-24 07:34N 38°29' W 123°56'44315.3
2014-Sep-23 02:33N 45°52' W 124°15'1717.2
2014-Sep-23 01:33N 46°09' W 124°10'10 9.6
2014-Sep-23 00:33N 46°13' W 123°58'5 4.6
2014-Sep-22 23:33N 46°11' W 123°51'0 0.0
2014-Sep-22 22:33N 46°11' W 123°51'0 0.0
2014-Sep-22 21:33N 46°11' W 123°51'0 0.0
2014-Sep-22 20:33N 46°11' W 123°51'0 0.0
2014-Sep-22 19:33N 46°11' W 123°51'0 0.0
2014-Sep-22 18:33N 46°11' W 123°51'0 0.0
2014-Sep-22 17:33N 46°11' W 123°51'0 0.0
2014-Sep-22 16:33N 46°11' W 123°51'0 0.0
2014-Sep-22 15:33N 46°11' W 123°51'1 1.4
2014-Sep-22 14:34N 46°11' W 123°53'1110.7
2014-Sep-22 13:33N 46°13' W 124°09'5 5.3
2014-Sep-22 12:33N 46°14' W 124°17'11215.1
2014-Sep-22 05:09N 47°58' W 125°15'1016.1
2014-Sep-22 04:32N 48°08' W 125°12'1515.8
2014-Sep-22 03:33N 48°23' W 125°08'1414.1
2014-Sep-22 02:33N 48°30' W 124°50'1616.5
2014-Sep-22 01:33N 48°26' W 124°26'1616.0
2014-Sep-22 00:33N 48°20' W 124°04'1616.2
2014-Sep-21 23:33N 48°16' W 123°40'1312.7
2014-Sep-21 22:33N 48°23' W 123°24'2 2.1
2014-Sep-21 21:33N 48°25' W 123°23'0 0.0
2014-Sep-21 20:33N 48°25' W 123°23'0 0.0
2014-Sep-21 19:32N 48°25' W 123°23'0 0.0
2014-Sep-21 18:29N 48°25' W 123°23'0 0.0
2014-Sep-21 17:32N 48°25' W 123°23'0 0.0
2014-Sep-21 16:32N 48°25' W 123°23'0 0.0
2014-Sep-21 15:29N 48°25' W 123°23'0 0.0
2014-Sep-21 14:33N 48°25' W 123°23'8 7.9
2014-Sep-21 13:33N 48°17' W 123°26'1211.4
2014-Sep-21 12:32N 48°14' W 123°43'1313.1
2014-Sep-21 11:33N 48°15' W 124°02'1413.7
2014-Sep-21 10:34N 48°21' W 124°20'1313.3
2014-Sep-21 09:34N 48°27' W 124°39'1313.2
2014-Sep-21 08:33N 48°29' W 124°58'1312.9
2014-Sep-21 07:33N 48°32' W 125°17'1313.4
2014-Sep-21 06:33N 48°39' W 125°34'1413.6
2014-Sep-21 05:33N 48°45' W 125°53'1413.5
2014-Sep-21 04:33N 48°51' W 126°11'1313.4
2014-Sep-21 03:33N 48°57' W 126°29'1313.5
2014-Sep-21 02:33N 49°06' W 126°45'1413.6
2014-Sep-21 01:34N 49°16' W 126°59'1413.9
2014-Sep-21 00:34N 49°26' W 127°14'1413.7
2014-Sep-20 23:31N 49°36' W 127°30'1414.4
2014-Sep-20 22:33N 49°45' W 127°46'1614.9
2014-Sep-20 21:30N 49°55' W 128°05'28315.0
2014-Sep-20 02:33N 54°19' W 130°52'1616.1
2014-Sep-20 01:33N 54°13' W 130°26'7 6.6
2014-Sep-20 00:33N 54°19' W 130°19'0 0.0
2014-Sep-19 23:33N 54°19' W 130°19'0 0.0
2014-Sep-19 22:33N 54°19' W 130°19'0 0.0
2014-Sep-19 21:33N 54°19' W 130°19'0 0.0
2014-Sep-19 20:33N 54°19' W 130°19'0 0.0
2014-Sep-19 19:33N 54°19' W 130°19'0 0.0
2014-Sep-19 18:33N 54°19' W 130°19'0 0.0
2014-Sep-19 17:33N 54°19' W 130°19'0 0.0
2014-Sep-19 16:33N 54°19' W 130°19'0 0.3
2014-Sep-19 15:33N 54°19' W 130°20'9 6.7
2014-Sep-19 14:17N 54°14' W 130°31'1317.5
2014-Sep-19 13:33N 54°19' W 130°51'299 9.6
2014-Sep-18 06:31N 58°18' W 136°13'1717.5
2014-Sep-18 05:33N 58°18' W 135°41'  
Track history (hours):
 
Tides and Currents Weather Stations Pressure Air Temp Water Temp Dewpoint Dewpoint Depression Visibility Wind Speed Wind Dir Waves Ship Positions

Silver Shadow

Operator: V Ships Leisure SAM

Last reported at 2014-Sep-25 05:07 UTC. Time now 2014-Oct-20 13:03 UTC.
Position N 37°24' W 123°16'.
Warning: this ship's position is 25 days out of date.

Length 186 m; draft 6.1 m.

Type: Passenger vessel. MMSI: 308628000.

Date/timePositionNaut miles runAvg speedWind from/ knotsBaromVisibWave heightAir tempDewpointWater temp
2014-Sep-25 05:07N 37°24' W 123°16'915.4
2014-Sep-25 04:33N 37°30' W 123°08'1515.3
2014-Sep-25 03:33N 37°40' W 122°53'1313.3
2014-Sep-25 02:34N 37°46' W 122°38'1111.2
2014-Sep-25 01:32N 37°48' W 122°24'0 0.0
2014-Sep-25 00:32N 37°48' W 122°24'0 0.0
2014-Sep-24 23:29N 37°48' W 122°24'0 0.0
2014-Sep-24 22:32N 37°48' W 122°24'0 0.0
2014-Sep-24 21:32N 37°48' W 122°24'0 0.0
2014-Sep-24 20:32N 37°48' W 122°24'0 0.0
2014-Sep-24 19:29N 37°48' W 122°24'0 0.0
2014-Sep-24 18:32N 37°48' W 122°24'0 0.0
2014-Sep-24 17:29N 37°48' W 122°24'0 0.0
2014-Sep-24 16:32N 37°48' W 122°24'0 0.0
2014-Sep-24 15:32N 37°48' W 122°24'0 0.0
2014-Sep-24 14:34N 37°48' W 122°24'6 6.4
2014-Sep-24 13:33N 37°48' W 122°32'1212.4
2014-Sep-24 12:33N 37°47' W 122°48'1313.4
2014-Sep-24 11:33N 37°54' W 123°03'1313.3
2014-Sep-24 10:33N 38°02' W 123°16'1313.2
2014-Sep-24 09:33N 38°10' W 123°29'1414.4
2014-Sep-24 08:33N 38°18' W 123°44'1414.4
2014-Sep-24 07:34N 38°29' W 123°56'44315.3
2014-Sep-23 02:33N 45°52' W 124°15'1717.2
2014-Sep-23 01:33N 46°09' W 124°10'10 9.6
2014-Sep-23 00:33N 46°13' W 123°58'5 4.6
2014-Sep-22 23:33N 46°11' W 123°51'0 0.0
2014-Sep-22 22:33N 46°11' W 123°51'0 0.0
2014-Sep-22 21:33N 46°11' W 123°51'0 0.0
2014-Sep-22 20:33N 46°11' W 123°51'0 0.0
2014-Sep-22 19:33N 46°11' W 123°51'0 0.0
2014-Sep-22 18:33N 46°11' W 123°51'0 0.0
2014-Sep-22 17:33N 46°11' W 123°51'0 0.0
2014-Sep-22 16:33N 46°11' W 123°51'0 0.0
2014-Sep-22 15:33N 46°11' W 123°51'1 1.4
2014-Sep-22 14:34N 46°11' W 123°53'1110.7
2014-Sep-22 13:33N 46°13' W 124°09'5 5.3
2014-Sep-22 12:33N 46°14' W 124°17'11215.1
2014-Sep-22 05:09N 47°58' W 125°15'1016.1
2014-Sep-22 04:32N 48°08' W 125°12'1515.8
2014-Sep-22 03:33N 48°23' W 125°08'1414.1
2014-Sep-22 02:33N 48°30' W 124°50'1616.5
2014-Sep-22 01:33N 48°26' W 124°26'1616.0
2014-Sep-22 00:33N 48°20' W 124°04'1616.2
2014-Sep-21 23:33N 48°16' W 123°40'1312.7
2014-Sep-21 22:33N 48°23' W 123°24'2 2.1
2014-Sep-21 21:33N 48°25' W 123°23'0 0.0
2014-Sep-21 20:33N 48°25' W 123°23'0 0.0
2014-Sep-21 19:32N 48°25' W 123°23'0 0.0
2014-Sep-21 18:29N 48°25' W 123°23'0 0.0
2014-Sep-21 17:32N 48°25' W 123°23'0 0.0
2014-Sep-21 16:32N 48°25' W 123°23'0 0.0
2014-Sep-21 15:29N 48°25' W 123°23'0 0.0
2014-Sep-21 14:33N 48°25' W 123°23'8 7.9
2014-Sep-21 13:33N 48°17' W 123°26'1211.4
2014-Sep-21 12:32N 48°14' W 123°43'1313.1
2014-Sep-21 11:33N 48°15' W 124°02'1413.7
2014-Sep-21 10:34N 48°21' W 124°20'1313.3
2014-Sep-21 09:34N 48°27' W 124°39'1313.2
2014-Sep-21 08:33N 48°29' W 124°58'1312.9
2014-Sep-21 07:33N 48°32' W 125°17'1313.4
2014-Sep-21 06:33N 48°39' W 125°34'1413.6
2014-Sep-21 05:33N 48°45' W 125°53'1413.5
2014-Sep-21 04:33N 48°51' W 126°11'1313.4
2014-Sep-21 03:33N 48°57' W 126°29'1313.5
2014-Sep-21 02:33N 49°06' W 126°45'1413.6
2014-Sep-21 01:34N 49°16' W 126°59'1413.9
2014-Sep-21 00:34N 49°26' W 127°14'1413.7
2014-Sep-20 23:31N 49°36' W 127°30'1414.4
2014-Sep-20 22:33N 49°45' W 127°46'1614.9
2014-Sep-20 21:30N 49°55' W 128°05'28315.0
2014-Sep-20 02:33N 54°19' W 130°52'1616.1
2014-Sep-20 01:33N 54°13' W 130°26'7 6.6
2014-Sep-20 00:33N 54°19' W 130°19'0 0.0
2014-Sep-19 23:33N 54°19' W 130°19'0 0.0
2014-Sep-19 22:33N 54°19' W 130°19'0 0.0
2014-Sep-19 21:33N 54°19' W 130°19'0 0.0
2014-Sep-19 20:33N 54°19' W 130°19'0 0.0
2014-Sep-19 19:33N 54°19' W 130°19'0 0.0
2014-Sep-19 18:33N 54°19' W 130°19'0 0.0
2014-Sep-19 17:33N 54°19' W 130°19'0 0.0
2014-Sep-19 16:33N 54°19' W 130°19'0 0.3
2014-Sep-19 15:33N 54°19' W 130°20'9 6.7
2014-Sep-19 14:17N 54°14' W 130°31'1317.5
2014-Sep-19 13:33N 54°19' W 130°51'299 9.6
2014-Sep-18 06:31N 58°18' W 136°13'1717.5
2014-Sep-18 05:33N 58°18' W 135°41'  

Dump ship's entire track history